createdAt,value
2018-12-11T00:00:23.570Z,102364.74
2018-12-11T00:02:58.047Z,102365.57
2018-12-11T00:05:32.306Z,102361.78
2018-12-11T00:08:04.181Z,102372.30
2018-12-11T00:10:39.301Z,102377.83
2018-12-11T00:13:14.523Z,102379.88
2018-12-11T00:15:47.720Z,102382.02
2018-12-11T00:18:21.874Z,102381.23
2018-12-11T00:20:55.796Z,102380.41
2018-12-11T00:23:29.918Z,102366.03
2018-12-11T00:26:04.294Z,102361.03
2018-12-11T00:39:18.130Z,102362.72
2018-12-11T00:41:52.199Z,102363.14
2018-12-11T00:47:12.447Z,102370.30
2018-12-11T00:49:48.188Z,102371.16
2018-12-11T00:52:24.796Z,102366.11
2018-12-11T00:55:04.732Z,102361.47
2018-12-11T00:57:41.068Z,102360.59
2018-12-11T01:00:15.915Z,102362.75
2018-12-11T01:02:52.379Z,102356.39
2018-12-11T01:05:32.022Z,102260.64
2018-12-11T01:08:06.420Z,102262.75
2018-12-11T01:10:40.568Z,102341.80
2018-12-11T01:13:15.408Z,102353.92
2018-12-11T01:15:52.261Z,102353.89
2018-12-11T01:18:25.332Z,102362.80
2018-12-11T01:21:00.707Z,102359.02
2018-12-11T01:23:36.512Z,102362.37
2018-12-11T01:26:08.350Z,102364.91
2018-12-11T01:28:43.680Z,102365.77
2018-12-11T01:42:33.018Z,102373.31
2018-12-11T01:45:08.837Z,102369.53
2018-12-11T01:47:44.387Z,102367.45
2018-12-11T01:50:19.133Z,102368.67
2018-12-11T01:55:39.578Z,102362.81
2018-12-11T01:58:14.463Z,102369.13
2018-12-11T02:00:46.733Z,102367.84
2018-12-11T02:03:21.812Z,102368.28
2018-12-11T02:05:58.823Z,102370.40
2018-12-11T02:08:34.786Z,102350.19
2018-12-11T02:14:00.339Z,102304.77
2018-12-11T02:19:21.259Z,102377.09
2018-12-11T02:54:37.793Z,102380.83
2018-12-11T02:57:13.040Z,102376.60
2018-12-11T02:59:44.893Z,102375.78
2018-12-11T03:02:18.837Z,102373.24
2018-12-11T03:04:52.813Z,102378.30
2018-12-11T03:07:24.737Z,102374.53
2018-12-11T03:09:58.590Z,102371.22
2018-12-11T03:12:36.643Z,102364.91
2018-12-11T03:15:18.704Z,102375.87
2018-12-11T03:20:52.858Z,102364.90
2018-12-11T03:26:11.684Z,102367.84
2018-12-11T03:28:46.756Z,102337.95
2018-12-11T03:31:18.982Z,102370.78
2018-12-11T03:36:44.609Z,102369.95
2018-12-11T03:39:16.250Z,102353.55
2018-12-11T03:41:50.806Z,102364.06
2018-12-11T03:44:25.948Z,102346.83
2018-12-11T03:47:01.693Z,102345.12
2018-12-11T03:49:37.129Z,102348.09
2018-12-11T03:52:13.514Z,102345.16
2018-12-11T03:54:48.460Z,102345.16
2018-12-11T03:57:27.520Z,102348.92
2018-12-11T04:00:06.595Z,102355.64
2018-12-11T04:02:44.217Z,102361.97
2018-12-11T04:05:19.618Z,102353.98
2018-12-11T04:07:54.810Z,102357.34
2018-12-11T04:10:30.109Z,102360.27
2018-12-11T04:13:05.893Z,102365.31
2018-12-11T04:15:43.761Z,102363.24
2018-12-11T04:18:23.292Z,102356.46
2018-12-11T04:20:57.361Z,102354.81
2018-12-11T04:23:31.427Z,102351.44
2018-12-11T04:26:06.973Z,102351.87
2018-12-11T04:28:41.392Z,102348.91
2018-12-11T04:31:15.270Z,102358.20
2018-12-11T04:33:51.072Z,102364.52
2018-12-11T04:36:27.291Z,102368.28
2018-12-11T04:39:07.246Z,102366.17
2018-12-11T04:41:57.278Z,102372.90
2018-12-11T04:44:44.927Z,102382.59
2018-12-11T04:56:03.361Z,102370.21
2018-12-11T04:58:37.620Z,102374.94
2018-12-11T05:01:11.974Z,102370.19
2018-12-11T05:03:40.477Z,102373.16
2018-12-11T05:06:10.966Z,102368.95
2018-12-11T05:11:36.859Z,102361.76
2018-12-11T05:14:05.959Z,102364.39
2018-12-11T05:16:36.401Z,102355.58
2018-12-11T05:19:04.835Z,102358.06
2018-12-11T05:21:33.215Z,102360.62
2018-12-11T05:24:02.579Z,102366.13
2018-12-11T05:26:32.023Z,102366.96
2018-12-11T05:29:04.188Z,102364.84
2018-12-11T05:31:36.291Z,102365.27
2018-12-11T05:34:04.748Z,102361.52
2018-12-11T05:36:34.551Z,102371.63
2018-12-11T05:39:03.357Z,102365.30
2018-12-11T05:41:31.737Z,102366.13
2018-12-11T05:44:00.095Z,102376.69
2018-12-11T05:46:28.416Z,102374.16
2018-12-11T05:48:56.827Z,102377.95
2018-12-11T05:51:31.548Z,102371.95
2018-12-11T05:54:05.424Z,102382.06
2018-12-11T05:56:35.777Z,102381.70
2018-12-11T05:59:04.598Z,102382.51
2018-12-11T06:01:33.026Z,102377.93
2018-12-11T06:04:01.395Z,102374.12
2018-12-11T06:06:29.936Z,102374.12
2018-12-11T06:09:07.358Z,102370.34
2018-12-11T06:11:40.507Z,102364.02
2018-12-11T06:14:19.165Z,102363.59
2018-12-11T06:16:47.610Z,102358.56
2018-12-11T06:19:17.227Z,102357.70
2018-12-11T06:21:45.568Z,102361.95
2018-12-11T06:24:13.891Z,102371.59
2018-12-11T06:26:42.242Z,102361.53
2018-12-11T06:29:10.560Z,102360.28
2018-12-11T06:31:40.359Z,102359.42
2018-12-11T06:34:16.209Z,102364.47
2018-12-11T06:39:47.427Z,102362.37
2018-12-11T06:42:24.376Z,102363.22
2018-12-11T06:44:53.414Z,102365.73
2018-12-11T06:47:22.429Z,102370.78
2018-12-11T06:49:50.944Z,102374.17
2018-12-11T06:52:26.425Z,102377.50
2018-12-11T06:54:54.881Z,102371.61
2018-12-11T06:57:23.788Z,102368.70
2018-12-11T06:59:52.582Z,102361.96
2018-12-11T07:02:21.797Z,102363.23
2018-12-11T07:04:50.308Z,102367.86
2018-12-11T07:07:19.552Z,102373.34
2018-12-11T07:09:47.986Z,102371.65
2018-12-11T07:12:16.411Z,102372.48
2018-12-11T07:14:48.803Z,102374.19
2018-12-11T07:17:17.801Z,102370.38
2018-12-11T07:19:46.176Z,102376.69
2018-12-11T07:22:14.580Z,102377.11
2018-12-11T07:24:49.016Z,102374.58
2018-12-11T07:27:18.827Z,102374.17
2018-12-11T07:29:49.029Z,102375.44
2018-12-11T07:32:31.620Z,102372.07
2018-12-11T07:35:04.477Z,102376.69
2018-12-11T07:37:35.142Z,102376.26
2018-12-11T07:40:04.796Z,102389.30
2018-12-11T07:42:35.027Z,102390.98
2018-12-11T07:45:07.044Z,102392.24
2018-12-11T07:47:41.260Z,102391.38
2018-12-11T07:50:10.168Z,102399.37
2018-12-11T07:52:39.630Z,102394.74
2018-12-11T07:55:15.226Z,102405.25
2018-12-11T07:57:49.765Z,102403.97
2018-12-11T08:00:18.552Z,102368.63
2018-12-11T08:02:48.980Z,102408.16
2018-12-11T08:05:20.440Z,102412.35
2018-12-11T08:07:56.482Z,102412.38
2018-12-11T08:13:24.147Z,102411.05
2018-12-11T08:15:55.538Z,102420.31
2018-12-11T08:18:32.780Z,102414.45
2018-12-11T08:21:03.023Z,102416.55
2018-12-11T08:23:45.941Z,102414.00
2018-12-11T08:26:26.410Z,102409.79
2018-12-11T08:28:56.487Z,102409.37
2018-12-11T08:34:37.880Z,102411.51
2018-12-11T08:37:13.101Z,102413.66
2018-12-11T08:39:57.931Z,102409.87
2018-12-11T08:42:39.216Z,102418.71
2018-12-11T08:47:09.937Z,102420.84
2018-12-11T08:49:40.342Z,102417.89
2018-12-11T08:52:10.728Z,102428.44
2018-12-11T08:54:49.903Z,102430.53
2018-12-11T08:57:22.203Z,102430.11
2018-12-11T08:59:51.566Z,102429.26
2018-12-11T09:02:20.241Z,102428.77
2018-12-11T09:04:51.283Z,102428.52
2018-12-11T09:07:22.203Z,102423.36
2018-12-11T09:09:52.267Z,102424.09
2018-12-11T09:12:25.361Z,102421.84
2018-12-11T09:15:01.766Z,102425.08
2018-12-11T09:17:30.697Z,102422.36
2018-12-11T09:20:01.367Z,102421.95
2018-12-11T09:33:21.207Z,102415.09
2018-12-11T09:35:59.496Z,102419.41
2018-12-11T09:38:35.683Z,102422.38
2018-12-11T09:41:11.269Z,102418.50
2018-12-11T09:43:45.654Z,102418.17
2018-12-11T09:51:58.468Z,102412.66
2018-12-11T10:00:27.806Z,102417.47
2018-12-11T10:03:08.293Z,102423.77
2018-12-11T10:05:56.670Z,102422.96
2018-12-11T10:14:28.429Z,102420.67
2018-12-11T10:31:32.509Z,102429.47
2018-12-11T10:34:09.518Z,102413.95
2018-12-11T10:39:42.618Z,102414.31
2018-12-11T10:45:23.262Z,102412.77
2018-12-11T12:18:47.254Z,102402.25
2018-12-11T12:24:14.668Z,102386.14
2018-12-11T12:35:35.289Z,102381.70
2018-12-11T12:38:16.292Z,102381.34
2018-12-11T12:52:50.062Z,102392.15
2018-12-11T13:43:33.204Z,102380.17
2018-12-11T15:05:12.764Z,102384.67
2018-12-11T15:07:57.564Z,102390.62
2018-12-11T15:24:47.257Z,102381.27
2018-12-11T15:38:47.033Z,102380.20
2018-12-11T15:41:34.467Z,102381.95
2018-12-11T16:09:41.464Z,102393.76
2018-12-11T16:12:32.062Z,102403.38
2018-12-11T16:15:11.708Z,102405.46
2018-12-11T16:33:21.581Z,102395.91
2018-12-11T17:39:21.793Z,102432.59
2018-12-11T17:42:39.955Z,102433.02
2018-12-11T17:45:30.124Z,102439.02
2018-12-11T17:51:01.912Z,102446.25
2018-12-11T17:56:31.084Z,102436.74
2018-12-11T18:11:03.209Z,102438.80
2018-12-11T18:28:06.781Z,102436.36
2018-12-11T20:55:42.677Z,102487.33
2018-12-11T21:18:15.297Z,102491.50
2018-12-11T21:20:52.754Z,102489.38
2018-12-11T21:23:31.325Z,102491.47
2018-12-11T21:26:07.833Z,102495.19
2018-12-11T21:28:42.221Z,102498.96
2018-12-11T21:31:16.608Z,102496.02
2018-12-11T21:33:48.575Z,102498.98
2018-12-11T21:36:23.656Z,102494.33
2018-12-11T21:38:57.623Z,102381.38
2018-12-11T21:41:33.227Z,102499.33
2018-12-11T21:44:08.282Z,102499.33
2018-12-11T21:46:44.640Z,102499.31
2018-12-11T21:49:19.243Z,102499.32
2018-12-11T21:51:53.907Z,102506.03
2018-12-11T21:54:28.659Z,102500.13
2018-12-11T21:57:02.024Z,102503.90
2018-12-11T21:59:34.471Z,102502.23
2018-12-11T22:02:10.627Z,102497.58
2018-12-11T22:04:46.708Z,102495.89
2018-12-11T22:07:23.189Z,102488.73
2018-12-11T22:09:57.775Z,102388.35
2018-12-11T22:12:33.695Z,102372.81
2018-12-11T22:15:08.465Z,102498.31
2018-12-11T22:17:44.449Z,102492.01
2018-12-11T22:20:18.780Z,102494.09
2018-12-11T22:22:53.021Z,102491.14
2018-12-11T22:25:27.581Z,102495.30
2018-12-11T22:28:01.870Z,102497.41
2018-12-11T22:30:38.097Z,102496.94
2018-12-11T22:33:12.124Z,102505.69
2018-12-11T22:35:46.452Z,102498.95
2018-12-11T22:38:21.265Z,102504.80
2018-12-11T22:41:50.070Z,102507.86
2018-12-11T22:44:25.238Z,102511.09
2018-12-11T22:47:00.192Z,102508.95
2018-12-11T22:49:37.798Z,102517.33
2018-12-11T22:52:12.697Z,102511.88
2018-12-11T22:54:46.825Z,102509.80
2018-12-11T22:57:21.255Z,102499.62
2018-12-11T22:59:56.053Z,102501.22
2018-12-11T23:02:27.801Z,102497.04
2018-12-11T23:04:58.335Z,102501.22
2018-12-11T23:07:32.138Z,102497.84
2018-12-11T23:10:07.270Z,102498.33
2018-12-11T23:12:39.021Z,102502.76
2018-12-11T23:15:09.412Z,102503.58
2018-12-11T23:17:43.826Z,102497.36
2018-12-11T23:20:21.963Z,102500.30
2018-12-11T23:22:56.347Z,102501.78
2018-12-11T23:28:29.288Z,102509.33
2018-12-11T23:31:09.242Z,102509.33
2018-12-11T23:33:43.838Z,102515.27
2018-12-11T23:36:19.807Z,102512.75
2018-12-11T23:38:58.627Z,102490.32
2018-12-11T23:41:32.954Z,102512.25
2018-12-11T23:44:09.384Z,102508.52
2018-12-11T23:46:44.093Z,102514.00
2018-12-11T23:49:21.379Z,102513.16
2018-12-11T23:51:53.724Z,102510.64
2018-12-11T23:54:28.943Z,102505.59
2018-12-11T23:57:03.953Z,102500.52
2018-12-11T23:59:43.174Z,102495.89
